createdAt,value
2022-07-29T00:00:05.717Z,420
2022-07-29T00:00:15.736Z,421
2022-07-29T00:00:25.741Z,421
2022-07-29T00:00:35.761Z,420
2022-07-29T00:00:45.771Z,419
2022-07-29T00:00:55.833Z,419
2022-07-29T00:01:05.782Z,420
2022-07-29T00:01:19.134Z,423
2022-07-29T00:01:25.810Z,423
2022-07-29T00:01:35.822Z,422
2022-07-29T00:01:45.840Z,424
2022-07-29T00:01:56.045Z,427
2022-07-29T00:02:05.878Z,426
2022-07-29T00:02:25.985Z,425
2022-07-29T00:02:36.048Z,426
2022-07-29T00:02:46.014Z,428
2022-07-29T00:02:55.990Z,428
2022-07-29T00:03:06.138Z,428
2022-07-29T00:03:26.077Z,428
2022-07-29T00:03:36.014Z,426
2022-07-29T00:03:46.092Z,427
2022-07-29T00:03:56.020Z,426
2022-07-29T00:04:06.038Z,425
2022-07-29T00:04:16.350Z,427
2022-07-29T00:04:26.112Z,427
2022-07-29T00:04:36.111Z,425
2022-07-29T00:04:46.048Z,424
2022-07-29T00:04:56.067Z,421
2022-07-29T00:05:06.083Z,421
2022-07-29T00:05:16.089Z,423
2022-07-29T00:05:26.105Z,422
2022-07-29T00:05:36.117Z,421
2022-07-29T00:05:46.130Z,420
2022-07-29T00:05:56.161Z,420
2022-07-29T00:06:06.151Z,422
2022-07-29T00:06:16.171Z,424
2022-07-29T00:06:26.179Z,424
2022-07-29T00:06:36.186Z,425
2022-07-29T00:06:46.206Z,426
2022-07-29T00:06:56.214Z,425
2022-07-29T00:07:06.224Z,421
2022-07-29T00:07:16.237Z,423
2022-07-29T00:07:26.248Z,423
2022-07-29T00:07:36.312Z,422
2022-07-29T00:07:46.287Z,423
2022-07-29T00:07:56.382Z,422
2022-07-29T00:08:09.376Z,420
2022-07-29T00:08:16.310Z,420
2022-07-29T00:08:26.320Z,422
2022-07-29T00:08:36.332Z,423
2022-07-29T00:08:46.347Z,423
2022-07-29T00:08:56.354Z,423
2022-07-29T00:09:06.363Z,423
2022-07-29T00:09:16.384Z,422
2022-07-29T00:09:26.417Z,421
2022-07-29T00:09:42.952Z,421
2022-07-29T00:09:51.973Z,422
2022-07-29T00:09:56.445Z,422
2022-07-29T00:10:06.443Z,422
2022-07-29T00:10:16.484Z,423
2022-07-29T00:10:26.559Z,423
2022-07-29T00:10:36.487Z,423
2022-07-29T00:10:46.493Z,423
2022-07-29T00:10:56.499Z,423
2022-07-29T00:11:06.518Z,423
2022-07-29T00:11:26.555Z,423
2022-07-29T00:11:37.052Z,424
2022-07-29T00:11:46.560Z,422
2022-07-29T00:12:06.592Z,424
2022-07-29T00:12:16.594Z,425
2022-07-29T00:12:26.989Z,425
2022-07-29T00:12:36.622Z,425
2022-07-29T00:12:46.685Z,424
2022-07-29T00:12:56.643Z,424
2022-07-29T00:13:06.666Z,422
2022-07-29T00:13:16.675Z,421
2022-07-29T00:13:32.361Z,423
2022-07-29T00:13:36.684Z,423
2022-07-29T00:13:50.926Z,425
2022-07-29T00:13:56.709Z,425
2022-07-29T00:14:06.739Z,424
2022-07-29T00:14:17.276Z,424
2022-07-29T00:14:26.747Z,425
2022-07-29T00:14:36.764Z,425
2022-07-29T00:14:46.790Z,424
2022-07-29T00:14:56.806Z,424
2022-07-29T00:15:06.826Z,426
2022-07-29T00:15:16.810Z,425
2022-07-29T00:15:26.813Z,426
2022-07-29T00:15:36.836Z,427
2022-07-29T00:15:46.847Z,429
2022-07-29T00:15:56.955Z,429
2022-07-29T00:16:06.927Z,430
2022-07-29T00:16:16.975Z,430
2022-07-29T00:16:27.015Z,428
2022-07-29T00:16:37.043Z,428
2022-07-29T00:16:47.039Z,428
2022-07-29T00:16:56.960Z,429
2022-07-29T00:17:06.930Z,431
2022-07-29T00:17:19.044Z,431
2022-07-29T00:17:26.961Z,431
2022-07-29T00:17:36.979Z,430
2022-07-29T00:17:47.032Z,430
2022-07-29T00:17:56.991Z,430
2022-07-29T00:18:07.008Z,431
2022-07-29T00:18:17.018Z,431
2022-07-29T00:18:27.040Z,432
2022-07-29T00:18:37.039Z,434
2022-07-29T00:18:47.050Z,433
2022-07-29T00:18:59.527Z,434
2022-07-29T00:19:07.780Z,434
2022-07-29T00:19:17.087Z,433
2022-07-29T00:19:27.090Z,433
2022-07-29T00:19:37.119Z,432
2022-07-29T00:19:47.128Z,431
2022-07-29T00:19:57.129Z,432
2022-07-29T00:20:07.139Z,433
2022-07-29T00:20:17.162Z,433
2022-07-29T00:20:27.179Z,433
2022-07-29T00:20:37.181Z,434
2022-07-29T00:20:47.192Z,434
2022-07-29T00:20:57.202Z,433
2022-07-29T00:21:07.229Z,433
2022-07-29T00:21:17.229Z,433
2022-07-29T00:21:27.239Z,433
2022-07-29T00:21:37.263Z,431
2022-07-29T00:21:47.277Z,430
2022-07-29T00:21:57.274Z,432
2022-07-29T00:22:07.331Z,432
2022-07-29T00:22:17.301Z,431
2022-07-29T00:22:27.317Z,429
2022-07-29T00:22:37.331Z,426
2022-07-29T00:22:47.340Z,425
2022-07-29T00:22:57.355Z,425
2022-07-29T00:23:07.435Z,425
2022-07-29T00:23:17.374Z,424
2022-07-29T00:23:27.383Z,424
2022-07-29T00:23:37.396Z,423
2022-07-29T00:23:47.414Z,425
2022-07-29T00:23:57.430Z,424
2022-07-29T00:24:07.441Z,423
2022-07-29T00:24:17.999Z,423
2022-07-29T00:24:27.462Z,421
2022-07-29T00:24:37.511Z,420
2022-07-29T00:24:47.481Z,419
2022-07-29T00:24:57.554Z,419
2022-07-29T00:25:07.506Z,419
2022-07-29T00:25:17.519Z,420
2022-07-29T00:25:27.540Z,418
2022-07-29T00:25:37.561Z,419
2022-07-29T00:25:47.571Z,420
2022-07-29T00:25:57.573Z,420
2022-07-29T00:26:07.613Z,419
2022-07-29T00:26:17.615Z,418
2022-07-29T00:26:27.614Z,416
2022-07-29T00:26:37.621Z,416
2022-07-29T00:26:47.638Z,417
2022-07-29T00:26:57.650Z,417
2022-07-29T00:27:07.664Z,418
2022-07-29T00:27:17.707Z,418
2022-07-29T00:27:27.694Z,418
2022-07-29T00:27:37.703Z,419
2022-07-29T00:27:47.780Z,421
2022-07-29T00:27:57.718Z,421
2022-07-29T00:28:07.732Z,424
2022-07-29T00:28:17.755Z,423
2022-07-29T00:28:27.758Z,423
2022-07-29T00:28:37.775Z,422
2022-07-29T00:28:47.914Z,421
2022-07-29T00:29:30.728Z,421
2022-07-29T00:29:33.097Z,420
2022-07-29T00:29:33.437Z,421
2022-07-29T00:29:34.722Z,422
2022-07-29T00:29:37.840Z,422
2022-07-29T00:29:47.921Z,422
2022-07-29T00:29:57.887Z,423
2022-07-29T00:30:07.886Z,422
2022-07-29T00:30:17.889Z,422
2022-07-29T00:30:27.923Z,422
2022-07-29T00:30:37.928Z,422
2022-07-29T00:30:48.096Z,422
2022-07-29T00:30:57.942Z,422
2022-07-29T00:31:08.045Z,422
2022-07-29T00:31:18.095Z,423
2022-07-29T00:31:28.093Z,424
2022-07-29T00:31:38.088Z,423
2022-07-29T00:31:48.160Z,422
2022-07-29T00:31:58.042Z,422
2022-07-29T00:32:08.026Z,422
2022-07-29T00:32:18.046Z,422
2022-07-29T00:32:28.055Z,423
2022-07-29T00:32:38.063Z,423
2022-07-29T00:32:48.190Z,424
2022-07-29T00:32:58.082Z,423
2022-07-29T00:33:18.104Z,424
2022-07-29T00:33:28.115Z,425
2022-07-29T00:33:38.183Z,426
2022-07-29T00:33:48.218Z,426
2022-07-29T00:33:58.148Z,427
2022-07-29T00:34:08.225Z,427
2022-07-29T00:34:18.459Z,427
2022-07-29T00:34:28.184Z,425
2022-07-29T00:34:38.202Z,425
2022-07-29T00:34:48.327Z,426
2022-07-29T00:34:58.221Z,425
2022-07-29T00:35:08.235Z,425
2022-07-29T00:35:18.244Z,424
2022-07-29T00:35:28.264Z,426
2022-07-29T00:35:38.276Z,426
2022-07-29T00:35:48.355Z,426
2022-07-29T00:35:58.302Z,426
2022-07-29T00:36:08.312Z,426
2022-07-29T00:36:18.322Z,427
2022-07-29T00:36:28.333Z,427
2022-07-29T00:36:38.342Z,427
2022-07-29T00:36:48.402Z,427
2022-07-29T00:36:58.370Z,427
2022-07-29T00:37:08.381Z,428
2022-07-29T00:37:18.402Z,429
2022-07-29T00:37:28.405Z,429
2022-07-29T00:37:38.428Z,429
2022-07-29T00:37:58.445Z,429
2022-07-29T00:38:08.460Z,430
2022-07-29T00:38:18.490Z,429
2022-07-29T00:38:28.479Z,428
2022-07-29T00:38:38.494Z,429
2022-07-29T00:38:48.578Z,430
2022-07-29T00:38:58.529Z,431
2022-07-29T00:39:08.543Z,431
2022-07-29T00:39:18.552Z,430
2022-07-29T00:39:28.568Z,431
2022-07-29T00:39:38.577Z,429
2022-07-29T00:39:48.603Z,429
2022-07-29T00:39:58.589Z,429
2022-07-29T00:40:08.617Z,430
2022-07-29T00:40:18.616Z,429
2022-07-29T00:40:28.629Z,430
2022-07-29T00:40:38.661Z,429
2022-07-29T00:40:48.643Z,429
2022-07-29T00:40:58.660Z,428
2022-07-29T00:41:08.672Z,428
2022-07-29T00:41:18.686Z,427
2022-07-29T00:41:28.703Z,428
2022-07-29T00:41:38.719Z,429
2022-07-29T00:41:48.772Z,428
2022-07-29T00:41:58.737Z,429
2022-07-29T00:42:08.748Z,429
2022-07-29T00:42:18.765Z,429
2022-07-29T00:42:28.777Z,430
2022-07-29T00:42:38.795Z,429
2022-07-29T00:42:48.798Z,429
2022-07-29T00:42:58.818Z,429
2022-07-29T00:43:08.826Z,429
2022-07-29T00:43:18.835Z,430
2022-07-29T00:43:28.855Z,430
2022-07-29T00:43:38.863Z,431
2022-07-29T00:43:48.883Z,431
2022-07-29T00:43:58.966Z,431
2022-07-29T00:44:08.907Z,430
2022-07-29T00:44:18.922Z,433
2022-07-29T00:44:28.932Z,433
2022-07-29T00:44:38.989Z,434
2022-07-29T00:44:48.944Z,433
2022-07-29T00:45:08.985Z,434
2022-07-29T00:45:19.004Z,433
2022-07-29T00:45:29.006Z,433
2022-07-29T00:45:39.039Z,434
2022-07-29T00:45:49.034Z,433
2022-07-29T00:45:59.035Z,431
2022-07-29T00:46:09.051Z,432
2022-07-29T00:46:19.128Z,432
2022-07-29T00:46:29.140Z,432
2022-07-29T00:46:39.129Z,432
2022-07-29T00:46:49.294Z,433
2022-07-29T00:46:59.180Z,433
2022-07-29T00:47:09.212Z,432
2022-07-29T00:47:19.144Z,433
2022-07-29T00:47:29.148Z,432
2022-07-29T00:47:39.219Z,431
2022-07-29T00:47:49.173Z,431
2022-07-29T00:47:59.184Z,432
2022-07-29T00:48:09.257Z,434
2022-07-29T00:48:19.211Z,434
2022-07-29T00:48:29.230Z,435
2022-07-29T00:48:39.265Z,436
2022-07-29T00:48:49.298Z,437
2022-07-29T00:48:59.320Z,438
2022-07-29T00:49:09.347Z,439
2022-07-29T00:49:19.422Z,438
2022-07-29T00:49:29.308Z,438
2022-07-29T00:49:39.316Z,439
2022-07-29T00:49:49.322Z,441
2022-07-29T00:49:59.340Z,440
2022-07-29T00:50:09.356Z,440
2022-07-29T00:50:19.363Z,441
2022-07-29T00:50:29.372Z,441
2022-07-29T00:50:39.393Z,439
2022-07-29T00:50:49.395Z,439
2022-07-29T00:50:59.435Z,441
2022-07-29T00:51:19.451Z,439
2022-07-29T00:51:29.463Z,440
2022-07-29T00:51:39.486Z,438
2022-07-29T00:51:49.474Z,436
2022-07-29T00:51:59.491Z,437
2022-07-29T00:52:09.527Z,437
2022-07-29T00:52:19.526Z,438
2022-07-29T00:52:29.523Z,437
2022-07-29T00:52:39.537Z,435
2022-07-29T00:52:49.549Z,434
2022-07-29T00:52:59.577Z,434
2022-07-29T00:53:09.582Z,435
2022-07-29T00:53:19.589Z,435
2022-07-29T00:53:29.602Z,435
2022-07-29T00:53:39.614Z,434
2022-07-29T00:53:49.625Z,432
2022-07-29T00:53:59.636Z,433
2022-07-29T00:54:09.643Z,433
2022-07-29T00:54:19.808Z,433
2022-07-29T00:54:29.767Z,432
2022-07-29T00:54:44.175Z,433
2022-07-29T00:54:49.710Z,432
2022-07-29T00:55:02.630Z,431
2022-07-29T00:55:09.800Z,431
2022-07-29T00:55:19.724Z,430
2022-07-29T00:55:29.739Z,429
2022-07-29T00:55:39.790Z,428
2022-07-29T00:55:49.756Z,429
2022-07-29T00:55:59.774Z,429
2022-07-29T00:56:09.782Z,429
2022-07-29T00:56:19.796Z,429
2022-07-29T00:56:29.807Z,431
2022-07-29T00:56:39.819Z,431
2022-07-29T00:56:49.826Z,430
2022-07-29T00:56:59.845Z,428
2022-07-29T00:57:10.023Z,430
2022-07-29T00:57:19.889Z,429
2022-07-29T00:57:29.877Z,430
2022-07-29T00:57:39.892Z,429
2022-07-29T00:57:49.896Z,429
2022-07-29T00:57:59.955Z,427
2022-07-29T00:58:09.933Z,428
2022-07-29T00:58:19.936Z,428
2022-07-29T00:58:29.954Z,428
2022-07-29T00:58:39.968Z,429
2022-07-29T00:58:49.968Z,432
2022-07-29T00:58:59.987Z,431
2022-07-29T00:59:09.996Z,429
2022-07-29T00:59:20.068Z,428
2022-07-29T00:59:34.444Z,428
2022-07-29T00:59:40.035Z,430
2022-07-29T00:59:50.048Z,431
2022-07-29T01:00:00.073Z,432
2022-07-29T01:00:10.084Z,434
2022-07-29T01:00:20.098Z,437
2022-07-29T01:00:30.127Z,437
2022-07-29T01:00:40.164Z,437
2022-07-29T01:00:50.179Z,436
2022-07-29T01:01:00.283Z,436
2022-07-29T01:01:10.182Z,436
2022-07-29T01:01:20.207Z,434
2022-07-29T01:01:30.186Z,435
2022-07-29T01:01:40.207Z,435
2022-07-29T01:01:50.245Z,436
2022-07-29T01:02:00.272Z,437
2022-07-29T01:02:10.266Z,439
2022-07-29T01:02:20.331Z,438
2022-07-29T01:02:30.269Z,438
2022-07-29T01:02:40.252Z,438
2022-07-29T01:02:50.251Z,438
2022-07-29T01:03:00.264Z,437
2022-07-29T01:03:10.285Z,439
2022-07-29T01:03:20.290Z,439
2022-07-29T01:03:30.318Z,437
2022-07-29T01:03:40.323Z,437
2022-07-29T01:03:50.326Z,437
2022-07-29T01:04:00.342Z,437
2022-07-29T01:04:10.351Z,437
2022-07-29T01:04:20.365Z,438
2022-07-29T01:04:30.397Z,438
2022-07-29T01:04:40.393Z,437
2022-07-29T01:04:50.395Z,436
2022-07-29T01:05:00.412Z,437
2022-07-29T01:05:10.424Z,437
2022-07-29T01:05:20.558Z,437
2022-07-29T01:05:50.161Z,437
2022-07-29T01:05:50.308Z,438
2022-07-29T01:05:51.884Z,437
2022-07-29T01:06:00.484Z,438
2022-07-29T01:06:10.583Z,437
2022-07-29T01:06:20.513Z,435
2022-07-29T01:06:30.523Z,436
2022-07-29T01:06:40.550Z,435
2022-07-29T01:06:50.548Z,436
2022-07-29T01:07:00.657Z,437
2022-07-29T01:07:10.590Z,435
2022-07-29T01:07:20.586Z,434
2022-07-29T01:07:30.600Z,434
2022-07-29T01:07:40.614Z,433
2022-07-29T01:07:50.625Z,432
2022-07-29T01:08:00.626Z,433
2022-07-29T01:08:10.648Z,431
2022-07-29T01:08:20.654Z,431
2022-07-29T01:08:30.664Z,432
2022-07-29T01:08:40.679Z,432
2022-07-29T01:08:50.702Z,432
2022-07-29T01:09:00.696Z,433
2022-07-29T01:09:10.722Z,433
2022-07-29T01:09:34.326Z,432
2022-07-29T01:09:35.926Z,429
2022-07-29T01:09:45.437Z,428
2022-07-29T01:09:50.759Z,427
2022-07-29T01:10:00.768Z,426
2022-07-29T01:10:10.778Z,427
2022-07-29T01:10:20.853Z,427
2022-07-29T01:10:30.885Z,424
2022-07-29T01:10:40.834Z,426
2022-07-29T01:10:50.833Z,427
2022-07-29T01:11:00.851Z,428
2022-07-29T01:11:10.866Z,429
2022-07-29T01:11:20.872Z,430
2022-07-29T01:11:30.904Z,429
2022-07-29T01:11:40.897Z,429
2022-07-29T01:11:50.911Z,430
2022-07-29T01:12:00.938Z,430
2022-07-29T01:12:10.934Z,429
2022-07-29T01:12:20.954Z,427
2022-07-29T01:12:30.963Z,427
2022-07-29T01:12:40.979Z,425
2022-07-29T01:12:51.075Z,426
2022-07-29T01:13:00.998Z,426
2022-07-29T01:13:11.005Z,425
2022-07-29T01:13:21.019Z,424
2022-07-29T01:13:31.116Z,425
2022-07-29T01:13:41.048Z,426
2022-07-29T01:13:51.063Z,428
2022-07-29T01:14:01.070Z,427
2022-07-29T01:14:11.089Z,426
2022-07-29T01:14:21.157Z,424
2022-07-29T01:14:31.124Z,424
2022-07-29T01:14:41.125Z,423
2022-07-29T01:14:51.158Z,427
2022-07-29T01:15:01.223Z,427
2022-07-29T01:15:11.178Z,425
2022-07-29T01:15:21.177Z,427
2022-07-29T01:15:31.230Z,427
2022-07-29T01:15:41.217Z,427
2022-07-29T01:16:01.286Z,429
2022-07-29T01:16:11.310Z,429
2022-07-29T01:16:21.370Z,431
2022-07-29T01:16:31.313Z,431
2022-07-29T01:16:41.355Z,429
2022-07-29T01:16:51.273Z,429
2022-07-29T01:17:11.301Z,429
2022-07-29T01:17:21.418Z,427
2022-07-29T01:17:31.329Z,427
2022-07-29T01:17:41.365Z,428
2022-07-29T01:17:53.212Z,427
2022-07-29T01:18:01.378Z,428
2022-07-29T01:18:11.371Z,428
2022-07-29T01:18:22.210Z,428
2022-07-29T01:18:31.442Z,428
2022-07-29T01:18:41.412Z,426
2022-07-29T01:18:51.421Z,427
2022-07-29T01:19:01.431Z,427
2022-07-29T01:19:11.445Z,427
2022-07-29T01:19:21.450Z,426
2022-07-29T01:19:31.466Z,427
2022-07-29T01:19:41.472Z,426
2022-07-29T01:19:51.491Z,426
2022-07-29T01:20:01.498Z,424
2022-07-29T01:20:11.510Z,427
2022-07-29T01:20:21.522Z,429
2022-07-29T01:20:32.072Z,427
2022-07-29T01:20:41.554Z,425
2022-07-29T01:20:51.564Z,423
2022-07-29T01:21:01.572Z,421
2022-07-29T01:21:11.618Z,422
2022-07-29T01:21:21.613Z,423
2022-07-29T01:21:31.646Z,424
2022-07-29T01:21:42.355Z,423
2022-07-29T01:21:51.643Z,423
2022-07-29T01:22:01.651Z,421
2022-07-29T01:22:11.665Z,422
2022-07-29T01:22:21.672Z,424
2022-07-29T01:22:31.743Z,427
2022-07-29T01:22:41.702Z,429
2022-07-29T01:22:51.706Z,429
2022-07-29T01:23:01.725Z,428
2022-07-29T01:23:11.824Z,429
2022-07-29T01:23:21.759Z,429
2022-07-29T01:23:31.758Z,428
2022-07-29T01:23:41.775Z,428
2022-07-29T01:23:51.862Z,428
2022-07-29T01:24:01.793Z,428
2022-07-29T01:24:11.908Z,430
2022-07-29T01:24:21.819Z,430
2022-07-29T01:24:31.855Z,430
2022-07-29T01:24:41.856Z,432
2022-07-29T01:24:51.859Z,432
2022-07-29T01:25:01.904Z,431
2022-07-29T01:25:11.939Z,431
2022-07-29T01:25:21.899Z,431
2022-07-29T01:25:31.909Z,430
2022-07-29T01:25:41.931Z,429
2022-07-29T01:25:55.947Z,429
2022-07-29T01:26:01.943Z,429
2022-07-29T01:26:11.949Z,428
2022-07-29T01:26:21.984Z,428
2022-07-29T01:26:32.466Z,428
2022-07-29T01:26:41.987Z,426
2022-07-29T01:26:52.004Z,426
2022-07-29T01:27:02.020Z,426
2022-07-29T01:27:12.029Z,426
2022-07-29T01:27:22.033Z,425
2022-07-29T01:27:32.046Z,425
2022-07-29T01:27:42.056Z,425
2022-07-29T01:27:52.069Z,426
2022-07-29T01:28:02.081Z,427
2022-07-29T01:28:12.094Z,428
2022-07-29T01:28:22.128Z,426
2022-07-29T01:28:32.114Z,425
2022-07-29T01:28:42.156Z,425
2022-07-29T01:28:52.144Z,425
2022-07-29T01:29:06.106Z,426
2022-07-29T01:29:12.165Z,427
2022-07-29T01:29:22.176Z,426
2022-07-29T01:29:36.155Z,426
2022-07-29T01:29:42.206Z,426
2022-07-29T01:29:52.198Z,424
2022-07-29T01:30:02.242Z,424
2022-07-29T01:30:13.072Z,425
2022-07-29T01:30:22.229Z,425
2022-07-29T01:30:32.234Z,426
2022-07-29T01:30:42.257Z,426
2022-07-29T01:30:52.264Z,427
2022-07-29T01:31:02.364Z,427
2022-07-29T01:31:12.402Z,425
2022-07-29T01:31:25.109Z,424
2022-07-29T01:31:32.347Z,424
2022-07-29T01:31:58.567Z,424
2022-07-29T01:31:58.653Z,424
2022-07-29T01:32:02.427Z,424
2022-07-29T01:32:12.342Z,424
2022-07-29T01:32:28.833Z,425
2022-07-29T01:32:32.390Z,425
2022-07-29T01:32:42.367Z,426
2022-07-29T01:32:52.382Z,426
2022-07-29T01:33:02.395Z,426
2022-07-29T01:33:12.502Z,427
2022-07-29T01:33:22.437Z,427
2022-07-29T01:33:32.468Z,428
2022-07-29T01:33:42.442Z,429
2022-07-29T01:33:52.492Z,427
2022-07-29T01:34:02.491Z,426
2022-07-29T01:34:12.628Z,425
2022-07-29T01:34:22.501Z,422
2022-07-29T01:34:32.509Z,424
2022-07-29T01:34:42.552Z,425
2022-07-29T01:34:52.545Z,425
2022-07-29T01:35:02.542Z,424
2022-07-29T01:35:12.555Z,426
2022-07-29T01:35:22.565Z,425
2022-07-29T01:35:32.653Z,425
2022-07-29T01:35:42.622Z,425
2022-07-29T01:35:52.618Z,424
2022-07-29T01:36:02.626Z,423
2022-07-29T01:36:12.641Z,424
2022-07-29T01:36:22.661Z,423
2022-07-29T01:36:32.656Z,423
2022-07-29T01:36:42.697Z,424
2022-07-29T01:36:52.764Z,424
2022-07-29T01:37:02.707Z,426
2022-07-29T01:37:12.733Z,427
2022-07-29T01:37:22.736Z,427
2022-07-29T01:37:32.732Z,428
2022-07-29T01:37:42.741Z,428
2022-07-29T01:37:52.759Z,426
2022-07-29T01:38:02.773Z,427
2022-07-29T01:38:12.784Z,427
2022-07-29T01:38:22.809Z,428
2022-07-29T01:38:32.808Z,427
2022-07-29T01:38:42.822Z,428
2022-07-29T01:38:52.844Z,428
2022-07-29T01:39:02.857Z,429
2022-07-29T01:39:12.856Z,430
2022-07-29T01:39:22.875Z,428
2022-07-29T01:39:33.419Z,428
2022-07-29T01:39:42.901Z,429
2022-07-29T01:39:52.924Z,429
2022-07-29T01:40:02.945Z,429
2022-07-29T01:40:12.956Z,427
2022-07-29T01:40:22.948Z,423
2022-07-29T01:40:32.961Z,422
2022-07-29T01:40:42.991Z,422
2022-07-29T01:40:52.986Z,425
2022-07-29T01:41:02.995Z,422
2022-07-29T01:41:13.008Z,424
2022-07-29T01:41:23.100Z,425
2022-07-29T01:41:33.040Z,423
2022-07-29T01:41:43.046Z,421
2022-07-29T01:41:53.062Z,421
2022-07-29T01:42:03.070Z,420
2022-07-29T01:42:13.082Z,419
2022-07-29T01:42:23.099Z,419
2022-07-29T01:42:33.120Z,419
2022-07-29T01:42:43.125Z,420
2022-07-29T01:42:53.314Z,419
2022-07-29T01:43:03.143Z,419
2022-07-29T01:43:13.156Z,419
2022-07-29T01:43:23.169Z,419
2022-07-29T01:43:43.185Z,420
2022-07-29T01:43:53.201Z,420
2022-07-29T01:44:03.214Z,421
2022-07-29T01:44:13.571Z,422
2022-07-29T01:44:23.241Z,424
2022-07-29T01:44:33.256Z,423
2022-07-29T01:44:43.254Z,422
2022-07-29T01:44:53.333Z,423
2022-07-29T01:45:03.293Z,423
2022-07-29T01:45:13.302Z,423
2022-07-29T01:45:23.311Z,425
2022-07-29T01:45:33.322Z,425
2022-07-29T01:45:43.335Z,426
2022-07-29T01:45:53.345Z,424
2022-07-29T01:46:03.397Z,425
2022-07-29T01:46:13.420Z,426
2022-07-29T01:46:23.457Z,426
2022-07-29T01:46:33.434Z,426
2022-07-29T01:46:43.531Z,426
2022-07-29T01:46:53.513Z,426
2022-07-29T01:47:03.534Z,426
2022-07-29T01:47:13.444Z,429
2022-07-29T01:47:23.451Z,428
2022-07-29T01:47:33.467Z,427
2022-07-29T01:47:43.520Z,426
2022-07-29T01:47:53.482Z,426
2022-07-29T01:48:03.495Z,426
2022-07-29T01:48:13.510Z,426
2022-07-29T01:48:23.519Z,426
2022-07-29T01:48:33.538Z,425
2022-07-29T01:48:43.582Z,426
2022-07-29T01:48:53.629Z,426
2022-07-29T01:49:03.645Z,426
2022-07-29T01:49:13.696Z,425
2022-07-29T01:49:23.664Z,427
2022-07-29T01:49:33.603Z,426
2022-07-29T01:49:43.617Z,427
2022-07-29T01:49:53.629Z,425
2022-07-29T01:50:03.639Z,425
2022-07-29T01:50:13.646Z,425
2022-07-29T01:50:23.671Z,425
2022-07-29T01:50:33.676Z,426
2022-07-29T01:50:43.700Z,425
2022-07-29T01:50:53.698Z,426
2022-07-29T01:51:03.815Z,427
2022-07-29T01:51:13.731Z,426
2022-07-29T01:51:23.739Z,427
2022-07-29T01:51:33.751Z,428
2022-07-29T01:51:43.770Z,427
2022-07-29T01:51:53.775Z,426
2022-07-29T01:52:03.803Z,426
2022-07-29T01:52:13.858Z,426
2022-07-29T01:52:23.810Z,425
2022-07-29T01:52:33.829Z,423
2022-07-29T01:52:43.860Z,425
2022-07-29T01:52:53.938Z,427
2022-07-29T01:53:03.949Z,430
2022-07-29T01:53:23.889Z,431
2022-07-29T01:53:37.831Z,429
2022-07-29T01:53:43.913Z,429
2022-07-29T01:53:53.915Z,428
2022-07-29T01:54:03.925Z,427
2022-07-29T01:54:14.229Z,427
2022-07-29T01:54:23.956Z,425
2022-07-29T01:54:33.972Z,426
2022-07-29T01:54:54.000Z,425
2022-07-29T01:55:04.048Z,425
2022-07-29T01:55:14.014Z,424
2022-07-29T01:55:24.028Z,424
2022-07-29T01:55:34.043Z,424
2022-07-29T01:55:44.058Z,424
2022-07-29T01:55:54.083Z,425
2022-07-29T01:56:04.084Z,427
2022-07-29T01:56:14.105Z,426
2022-07-29T01:56:24.107Z,425
2022-07-29T01:56:34.120Z,427
2022-07-29T01:56:44.124Z,426
2022-07-29T01:56:54.137Z,426
2022-07-29T01:57:04.151Z,425
2022-07-29T01:57:14.165Z,425
2022-07-29T01:57:24.182Z,425
2022-07-29T01:57:34.190Z,425
2022-07-29T01:57:44.318Z,427
2022-07-29T01:57:54.238Z,427
2022-07-29T01:58:04.228Z,425
2022-07-29T01:58:14.237Z,426
2022-07-29T01:58:24.247Z,428
2022-07-29T01:58:34.265Z,427
2022-07-29T01:58:44.302Z,427
2022-07-29T01:58:54.287Z,425
2022-07-29T01:59:04.314Z,425
2022-07-29T01:59:14.326Z,424
2022-07-29T01:59:24.335Z,424
2022-07-29T01:59:34.382Z,424
2022-07-29T01:59:44.348Z,425
2022-07-29T01:59:54.355Z,427
2022-07-29T02:00:14.385Z,423
2022-07-29T02:00:24.397Z,423
2022-07-29T02:00:34.402Z,422
2022-07-29T02:00:44.459Z,424
2022-07-29T02:00:54.456Z,425
2022-07-29T02:01:04.496Z,425
2022-07-29T02:01:14.632Z,426
2022-07-29T02:01:24.527Z,426
2022-07-29T02:01:34.559Z,425
2022-07-29T02:01:44.537Z,425
2022-07-29T02:01:54.755Z,424
2022-07-29T02:02:04.607Z,423
2022-07-29T02:02:14.558Z,424
2022-07-29T02:02:24.540Z,423
2022-07-29T02:02:34.555Z,423
2022-07-29T02:02:44.578Z,423
2022-07-29T02:02:54.574Z,423
2022-07-29T02:03:04.619Z,422
2022-07-29T02:03:14.650Z,421
2022-07-29T02:03:24.615Z,419
2022-07-29T02:03:34.633Z,423
2022-07-29T02:03:44.637Z,421
2022-07-29T02:03:54.661Z,421
2022-07-29T02:04:04.692Z,422
2022-07-29T02:04:29.145Z,422
2022-07-29T02:04:29.227Z,420
2022-07-29T02:04:34.758Z,423
2022-07-29T02:04:44.784Z,422
2022-07-29T02:04:54.797Z,424
2022-07-29T02:05:04.805Z,425
2022-07-29T02:05:14.797Z,423
2022-07-29T02:05:24.824Z,426
2022-07-29T02:05:34.803Z,427
2022-07-29T02:05:44.800Z,427
2022-07-29T02:05:54.801Z,426
2022-07-29T02:06:04.804Z,427
2022-07-29T02:06:14.834Z,429
2022-07-29T02:06:24.848Z,429
2022-07-29T02:06:34.949Z,429
2022-07-29T02:06:44.911Z,427
2022-07-29T02:06:54.880Z,427
2022-07-29T02:07:04.890Z,427
2022-07-29T02:07:14.908Z,427
2022-07-29T02:07:25.017Z,427
2022-07-29T02:07:34.939Z,426
2022-07-29T02:07:44.946Z,427
2022-07-29T02:07:54.957Z,427
2022-07-29T02:08:04.968Z,428
2022-07-29T02:08:14.983Z,429
2022-07-29T02:08:24.986Z,427
2022-07-29T02:08:35.057Z,425
2022-07-29T02:08:45.026Z,425
2022-07-29T02:08:55.086Z,425
2022-07-29T02:09:05.036Z,427
2022-07-29T02:09:15.050Z,428
2022-07-29T02:09:25.064Z,426
2022-07-29T02:09:35.073Z,424
2022-07-29T02:09:45.092Z,425
2022-07-29T02:09:55.104Z,425
2022-07-29T02:10:05.112Z,425
2022-07-29T02:10:15.136Z,425
2022-07-29T02:10:26.127Z,424
2022-07-29T02:10:35.145Z,423
2022-07-29T02:10:45.199Z,423
2022-07-29T02:10:55.246Z,421
2022-07-29T02:11:05.184Z,421
2022-07-29T02:11:15.218Z,421
2022-07-29T02:11:25.209Z,421
2022-07-29T02:11:35.216Z,420
2022-07-29T02:11:45.226Z,419
2022-07-29T02:11:55.242Z,418
2022-07-29T02:12:05.251Z,417
2022-07-29T02:12:15.269Z,416
2022-07-29T02:12:25.277Z,416
2022-07-29T02:12:35.283Z,417
2022-07-29T02:12:46.638Z,417
2022-07-29T02:12:55.303Z,416
2022-07-29T02:13:05.326Z,415
2022-07-29T02:13:15.425Z,414
2022-07-29T02:13:25.329Z,414
2022-07-29T02:13:35.348Z,415
2022-07-29T02:13:45.355Z,415
2022-07-29T02:13:55.463Z,416
2022-07-29T02:14:05.394Z,418
2022-07-29T02:14:15.842Z,416
2022-07-29T02:14:25.468Z,415
2022-07-29T02:14:35.425Z,414
2022-07-29T02:14:45.433Z,415
2022-07-29T02:14:55.443Z,415
2022-07-29T02:15:05.455Z,416
2022-07-29T02:15:15.507Z,417
2022-07-29T02:15:25.484Z,415
2022-07-29T02:15:35.511Z,415
2022-07-29T02:15:45.659Z,417
2022-07-29T02:15:55.662Z,417
2022-07-29T02:16:05.582Z,416
2022-07-29T02:16:15.780Z,415
2022-07-29T02:16:25.625Z,414
2022-07-29T02:16:35.635Z,415
2022-07-29T02:16:45.598Z,415
2022-07-29T02:16:55.689Z,416
2022-07-29T02:17:05.614Z,416
2022-07-29T02:17:15.626Z,416
2022-07-29T02:17:25.631Z,416
2022-07-29T02:17:35.650Z,417
2022-07-29T02:17:45.660Z,418
2022-07-29T02:17:55.668Z,419
2022-07-29T02:18:05.682Z,421
2022-07-29T02:18:15.700Z,419
2022-07-29T02:18:25.714Z,420
2022-07-29T02:18:35.730Z,421
2022-07-29T02:18:45.736Z,423
2022-07-29T02:18:55.747Z,424
2022-07-29T02:19:05.756Z,425
2022-07-29T02:19:15.773Z,427
2022-07-29T02:19:25.781Z,424
2022-07-29T02:19:35.794Z,423
2022-07-29T02:19:45.795Z,424
2022-07-29T02:19:55.814Z,423
2022-07-29T02:20:05.826Z,424
2022-07-29T02:20:15.833Z,425